Time;durP1;ratioP1;P1;durP2;ratioP2;P2;SDS_P1;SDS_P2;PMS_P1;PMS_P2;Temp;Humidity;BMP_temperature;BMP_pressure;BME280_temperature;BME280_humidity;BME280_pressure;Samples;Min_cycle;Max_cycle;Signal;HPM_P1;HPM_P2
2023/10/10 00:01:01;;;;;;;;;;;;;;;17.90;100.00;100122.53;4924453;29;20302;-75
2023/10/10 00:03:30;;;;;;;;;;;;;;;17.88;100.00;100113.84;4924040;29;19958;-75
2023/10/10 00:05:58;;;;;;;;;;;;;;;17.91;100.00;100108.13;4923121;29;20827;-75
2023/10/10 00:08:35;;;;;;;;;;;;;;;17.94;100.00;100116.66;4921123;29;19925;-75
2023/10/10 00:11:09;;;;;;;;;;;;;;;17.92;100.00;100113.31;4925613;29;19923;-74
2023/10/10 00:13:42;;;;;;;;;;;;;;;17.90;100.00;100112.66;4922083;29;19927;-73
2023/10/10 00:16:08;;;;;;;;;;;;;;;17.77;100.00;100117.75;4919823;29;20026;-73
2023/10/10 00:18:35;;;;;;;;;;;;;;;17.53;100.00;100123.16;4922267;29;19923;-73
2023/10/10 00:21:07;;;;;;;;;;;;;;;17.44;100.00;100116.19;4921148;29;19923;-73
2023/10/10 00:23:42;;;;;;;;;;;;;;;17.38;100.00;100112.38;4922027;29;20372;-74
2023/10/10 00:26:21;;;;;;;;;;;;;;;17.36;100.00;100106.41;4922342;29;19923;-74
2023/10/10 00:28:53;;;;;;;;;;;;;;;17.35;100.00;100107.41;4923683;29;19923;-74
2023/10/10 00:31:20;;;;;;;;;;;;;;;17.38;100.00;100107.03;4924538;29;20323;-74
2023/10/10 00:33:48;;;;;;;;;;;;;;;17.27;100.00;100112.75;4927714;29;19943;-74
2023/10/10 00:36:21;;;;;;;;;;;;;;;17.26;100.00;100111.09;4923110;29;20295;-74
2023/10/10 00:38:49;;;;;;;;;;;;;;;17.17;100.00;100112.13;4904153;29;19927;-74
2023/10/10 00:41:15;;;;;;;;;;;;;;;17.09;100.00;100120.97;4928017;29;20022;-73
2023/10/10 00:43:41;;;;;;;;;;;;;;;17.13;100.00;100117.00;4923406;29;19979;-73
2023/10/10 00:46:09;;;;;;;;;;;;;;;17.14;100.00;100115.16;4908333;29;19923;-73
2023/10/10 00:48:38;;;;;;;;;;;;;;;17.04;100.00;100109.16;4920895;29;19927;-72
2023/10/10 00:51:06;;;;;;;;;;;;;;;16.89;100.00;100113.53;4928071;29;19923;-75
2023/10/10 00:53:35;;;;;;;;;;;;;;;16.95;100.00;100107.53;4921655;29;19934;-75
2023/10/10 00:56:05;;;;;;;;;;;;;;;16.96;100.00;100109.22;4927726;29;19923;-74
2023/10/10 00:58:37;;;;;;;;;;;;;;;16.94;100.00;100105.88;4921972;29;19933;-73
2023/10/10 01:01:08;;;;;;;;;;;;;;;16.88;100.00;100103.88;4923516;29;20005;-73
2023/10/10 01:03:35;;;;;;;;;;;;;;;16.81;100.00;100105.56;4903632;29;19942;-74
2023/10/10 01:06:05;;;;;;;;;;;;;;;16.84;100.00;100110.56;4927891;29;19923;-74
2023/10/10 01:08:48;;;;;;;;;;;;;;;16.78;100.00;100112.91;4924594;29;19962;-74
2023/10/10 01:11:16;;;;;;;;;;;;;;;16.60;100.00;100109.59;4924922;29;19927;-75
2023/10/10 01:13:42;;;;;;;;;;;;;;;16.51;100.00;100109.72;4928116;29;20018;-75
2023/10/10 01:16:08;;;;;;;;;;;;;;;16.51;100.00;100105.22;4923616;29;20025;-74
2023/10/10 01:18:39;;;;;;;;;;;;;;;16.45;100.00;100100.56;4928794;29;20887;-73
2023/10/10 01:21:04;;;;;;;;;;;;;;;16.42;100.00;100100.91;4921710;29;20295;-73
2023/10/10 01:23:33;;;;;;;;;;;;;;;16.52;100.00;100101.56;4908138;29;19923;-73
2023/10/10 01:26:06;;;;;;;;;;;;;;;16.56;100.00;100088.72;4903821;29;20583;-74
2023/10/10 01:28:35;;;;;;;;;;;;;;;16.61;100.00;100091.78;4924782;29;19934;-75
2023/10/10 01:31:10;;;;;;;;;;;;;;;16.58;100.00;100095.56;4908182;29;20387;-75
2023/10/10 01:33:36;;;;;;;;;;;;;;;16.61;100.00;100089.91;4912755;29;19930;-74
2023/10/10 01:36:19;;;;;;;;;;;;;;;16.58;100.00;100087.56;4912188;29;19923;-75
2023/10/10 01:38:44;;;;;;;;;;;;;;;16.64;100.00;100089.59;4928495;29;20083;-74
2023/10/10 01:41:22;;;;;;;;;;;;;;;16.70;100.00;100088.91;4922511;29;19971;-74
2023/10/10 01:43:53;;;;;;;;;;;;;;;16.71;100.00;100085.25;4886321;29;19923;-75
2023/10/10 01:46:27;;;;;;;;;;;;;;;16.70;100.00;100082.75;4924474;29;20275;-75
2023/10/10 01:48:53;;;;;;;;;;;;;;;16.67;100.00;100089.25;4905109;29;19956;-74
2023/10/10 01:51:19;;;;;;;;;;;;;;;16.59;100.00;100086.59;4926227;29;19923;-75
2023/10/10 01:53:44;;;;;;;;;;;;;;;16.59;100.00;100091.94;4923202;29;19927;-75
2023/10/10 01:56:13;;;;;;;;;;;;;;;16.63;100.00;100087.09;4926699;29;19947;-75
2023/10/10 01:58:39;;;;;;;;;;;;;;;16.61;100.00;100079.25;4920910;29;19929;-75
2023/10/10 02:01:13;;;;;;;;;;;;;;;16.64;100.00;100084.25;4904346;29;19923;-74
2023/10/10 02:03:42;;;;;;;;;;;;;;;16.67;100.00;100083.13;4924697;29;20013;-75
2023/10/10 02:06:13;;;;;;;;;;;;;;;16.68;100.00;100074.94;4924928;29;20318;-74
2023/10/10 02:08:40;;;;;;;;;;;;;;;16.71;100.00;100085.25;4926822;29;19929;-74
2023/10/10 02:11:08;;;;;;;;;;;;;;;16.74;100.00;100089.41;4910513;29;20291;-73
2023/10/10 02:13:33;;;;;;;;;;;;;;;16.70;100.00;100078.25;4923751;29;20299;-75
2023/10/10 02:16:00;;;;;;;;;;;;;;;16.71;100.00;100074.59;4910834;29;19938;-74
2023/10/10 02:18:39;;;;;;;;;;;;;;;16.66;100.00;100082.28;4922907;29;19923;-74
2023/10/10 02:21:14;;;;;;;;;;;;;;;16.66;100.00;100084.94;4921636;29;19970;-73
2023/10/10 02:23:44;;;;;;;;;;;;;;;16.69;100.00;100081.94;4924633;29;19969;-74
2023/10/10 02:26:23;;;;;;;;;;;;;;;16.69;100.00;100087.25;4922713;29;20353;-74
2023/10/10 02:28:49;;;;;;;;;;;;;;;16.58;100.00;100084.06;4904426;29;19923;-74
2023/10/10 02:31:16;;;;;;;;;;;;;;;16.60;100.00;100079.44;4925011;29;20010;-74
2023/10/10 02:33:48;;;;;;;;;;;;;;;16.55;100.00;100079.91;4924053;29;19922;-75
2023/10/10 02:36:15;;;;;;;;;;;;;;;16.46;100.00;100075.59;4926136;29;20002;-74
2023/10/10 02:38:53;;;;;;;;;;;;;;;16.39;100.00;100071.94;4924346;29;19927;-75
2023/10/10 02:44:01;;;;;;;;;;;;;;;16.22;100.00;100071.09;4900537;29;19927;-73
2023/10/10 02:46:38;;;;;;;;;;;;;;;16.26;100.00;100068.94;4922105;29;19934;-74
2023/10/10 02:49:13;;;;;;;;;;;;;;;16.18;100.00;100064.47;4919910;29;19923;-74
2023/10/10 02:51:43;;;;;;;;;;;;;;;16.11;100.00;100076.75;4922595;29;19923;-73
2023/10/10 02:54:28;;;;;;;;;;;;;;;16.01;100.00;100068.13;4903401;29;19930;-75
2023/10/10 02:56:57;;;;;;;;;;;;;;;16.01;100.00;100069.94;4904221;29;19923;-74
2023/10/10 02:59:38;;;;;;;;;;;;;;;16.03;100.00;100073.25;4906691;29;20268;-75
2023/10/10 03:02:18;;;;;;;;;;;;;;;16.05;100.00;100071.25;4925360;29;19923;-75
2023/10/10 03:07:29;;;;;;;;;;;;;;;15.82;100.00;100074.56;4922922;29;19951;-76
2023/10/10 03:12:41;;;;;;;;;;;;;;;15.87;100.00;100080.22;4905929;29;19922;-75
2023/10/10 03:15:14;;;;;;;;;;;;;;;15.85;100.00;100082.22;4900913;29;19926;-75
2023/10/10 03:25:53;;;;;;;;;;;;;;;15.69;100.00;100076.88;4909227;29;19930;-76
2023/10/10 03:28:32;;;;;;;;;;;;;;;15.61;100.00;100079.50;4909791;29;19923;-75
2023/10/10 03:31:22;;;;;;;;;;;;;;;15.53;100.00;100074.16;4907889;29;19930;-75
2023/10/10 03:34:03;;;;;;;;;;;;;;;15.65;100.00;100078.19;4907525;29;19923;-75
2023/10/10 03:36:40;;;;;;;;;;;;;;;15.69;100.00;100074.19;4922835;29;19927;-74
2023/10/10 05:25:55;;;;;;;;;;;;;;;15.12;100.00;100105.06;4924839;29;19930;-78
2023/10/10 05:28:21;;;;;;;;;;;;;;;15.09;100.00;100103.53;4922599;29;19926;-77
2023/10/10 05:30:46;;;;;;;;;;;;;;;15.09;100.00;100100.88;4927061;29;20360;-77
2023/10/10 05:33:13;;;;;;;;;;;;;;;15.12;100.00;100103.22;4923764;29;19969;-79
2023/10/10 05:35:47;;;;;;;;;;;;;;;15.16;100.00;100104.56;4924348;29;20359;-78
2023/10/10 05:38:15;;;;;;;;;;;;;;;15.18;100.00;100109.72;4901228;29;19939;-79
2023/10/10 05:40:43;;;;;;;;;;;;;;;15.09;100.00;100105.34;4920743;29;19966;-80
2023/10/10 05:43:09;;;;;;;;;;;;;;;15.12;100.00;100108.53;4926537;29;19929;-78
2023/10/10 05:45:36;;;;;;;;;;;;;;;15.08;100.00;100093.88;4894265;29;19938;-80
2023/10/10 05:48:01;;;;;;;;;;;;;;;15.03;100.00;100109.47;4923415;29;19967;-79
2023/10/10 05:50:27;;;;;;;;;;;;;;;14.94;100.00;100107.78;4927776;29;20022;-79
2023/10/10 05:52:53;;;;;;;;;;;;;;;14.92;100.00;100106.25;4923355;29;20018;-79
2023/10/10 05:55:19;;;;;;;;;;;;;;;14.97;100.00;100114.59;4921521;29;19923;-79
2023/10/10 05:57:45;;;;;;;;;;;;;;;14.93;100.00;100111.41;4908721;29;19930;-79
2023/10/10 06:00:11;;;;;;;;;;;;;;;14.86;100.00;100110.38;4924300;29;20388;-79
2023/10/10 06:02:43;;;;;;;;;;;;;;;14.75;100.00;100110.63;4925637;29;19929;-77
2023/10/10 06:05:09;;;;;;;;;;;;;;;14.69;100.00;100113.91;4903272;29;19922;-77
2023/10/10 06:07:37;;;;;;;;;;;;;;;14.51;100.00;100113.13;4922410;29;19933;-77
2023/10/10 06:10:06;;;;;;;;;;;;;;;14.61;100.00;100108.53;4922257;29;19931;-75
2023/10/10 06:12:33;;;;;;;;;;;;;;;14.64;100.00;100110.91;4909220;29;19945;-75
2023/10/10 06:15:05;;;;;;;;;;;;;;;14.59;100.00;100110.53;4908600;29;20293;-76
2023/10/10 06:17:33;;;;;;;;;;;;;;;14.56;100.00;100110.81;4908911;29;19927;-73
2023/10/10 06:20:04;;;;;;;;;;;;;;;14.48;100.00;100110.78;4923530;29;19934;-75
2023/10/10 06:22:32;;;;;;;;;;;;;;;14.59;100.00;100113.19;4919198;29;20005;-75
2023/10/10 06:24:58;;;;;;;;;;;;;;;14.63;100.00;100114.53;4924229;29;19927;-76
2023/10/10 06:27:29;;;;;;;;;;;;;;;14.74;100.00;100116.94;4925473;29;19947;-75
2023/10/10 06:30:00;;;;;;;;;;;;;;;14.77;100.00;100116.63;4927415;29;20436;-77
2023/10/10 06:32:26;;;;;;;;;;;;;;;14.80;100.00;100132.25;4921803;29;20070;-77
2023/10/10 06:35:13;;;;;;;;;;;;;;;14.73;100.00;100132.03;4924685;29;19954;-78
2023/10/10 06:37:37;;;;;;;;;;;;;;;14.69;100.00;100130.69;4923572;23;19932;-82
2023/10/10 06:40:08;;;;;;;;;;;;;;;14.75;100.00;100134.53;4873508;29;20445;-82
2023/10/10 06:42:34;;;;;;;;;;;;;;;14.90;100.00;100137.47;4873498;29;19935;-82
2023/10/10 06:45:07;;;;;;;;;;;;;;;15.03;100.00;100136.06;4875303;29;19924;-82
2023/10/10 06:47:33;;;;;;;;;;;;;;;15.13;100.00;100150.09;4876313;29;19988;-83
2023/10/10 06:50:00;;;;;;;;;;;;;;;15.27;100.00;100148.66;4873062;29;19924;-82
2023/10/10 06:52:27;;;;;;;;;;;;;;;15.36;100.00;100154.84;4871710;29;19924;-83
2023/10/10 06:54:55;;;;;;;;;;;;;;;15.37;100.00;100159.19;4873666;29;19927;-82
2023/10/10 06:57:21;;;;;;;;;;;;;;;15.35;100.00;100155.84;4854951;29;19947;-83
2023/10/10 06:59:48;;;;;;;;;;;;;;;15.35;100.00;100164.66;4872152;29;19924;-83
2023/10/10 07:02:19;;;;;;;;;;;;;;;15.48;100.00;100164.22;4870663;29;19934;-84
2023/10/10 07:04:52;;;;;;;;;;;;;;;15.56;100.00;100162.44;4855027;29;19932;-83
2023/10/10 07:07:18;;;;;;;;;;;;;;;15.61;100.00;100159.31;4874149;29;19991;-83
2023/10/10 07:09:44;;;;;;;;;;;;;;;15.66;100.00;100162.34;4858308;29;20262;-84
2023/10/10 07:12:09;;;;;;;;;;;;;;;15.68;100.00;100157.66;4872240;29;19931;-83
2023/10/10 07:14:40;;;;;;;;;;;;;;;15.73;100.00;100163.34;4854512;29;19928;-84
2023/10/10 07:17:11;;;;;;;;;;;;;;;15.83;100.00;100156.06;4869437;29;19924;-83
2023/10/10 07:22:28;;;;;;;;;;;;;;;16.07;100.00;100159.78;4871409;29;21356;-83
2023/10/10 07:25:06;;;;;;;;;;;;;;;16.14;100.00;100163.47;4873588;29;19930;-81
2023/10/10 07:27:36;;;;;;;;;;;;;;;16.13;100.00;100164.47;4872788;29;20392;-83
2023/10/10 07:30:34;;;;;;;;;;;;;;;16.23;100.00;100165.16;4874983;29;19928;-83
2023/10/10 07:32:50;;;;;;;;;;;;;;;16.32;100.00;100158.81;4872773;29;19948;-83
2023/10/10 07:35:16;;;;;;;;;;;;;;;16.31;100.00;100167.81;4875985;29;19924;-83
2023/10/10 07:37:45;;;;;;;;;;;;;;;16.40;100.00;100172.16;4878295;29;19924;-83
2023/10/10 07:45:43;;;;;;;;;;;;;;;16.52;100.00;100170.00;4864492;29;20300;-83
2023/10/10 07:50:35;;;;;;;;;;;;;;;16.67;100.00;100169.19;4877468;29;19927;-83
2023/10/10 07:53:05;;;;;;;;;;;;;;;16.77;100.00;100164.53;4870074;29;19928;-83
2023/10/10 07:55:50;;;;;;;;;;;;;;;16.85;100.00;100165.53;4871934;29;19983;-84
2023/10/10 07:58:16;;;;;;;;;;;;;;;16.91;100.00;100171.00;5071469;23;19931;-82
2023/10/10 08:00:44;;;;;;;;;;;;;;;17.00;100.00;100171.84;4891231;29;19928;-82
2023/10/10 08:03:19;;;;;;;;;;;;;;;17.09;100.00;100173.47;4891315;29;20445;-81
2023/10/10 08:05:53;;;;;;;;;;;;;;;17.20;100.00;100171.28;4891584;29;19923;-83
2023/10/10 08:08:19;;;;;;;;;;;;;;;17.25;100.00;100172.63;4892028;29;20242;-84
2023/10/10 08:10:49;;;;;;;;;;;;;;;17.26;100.00;100179.63;4892145;29;19940;-84
2023/10/10 08:13:15;;;;;;;;;;;;;;;17.34;100.00;100177.75;4888201;29;20388;-83
2023/10/10 08:15:56;;;;;;;;;;;;;;;17.43;100.00;100179.41;4890534;29;19923;-84
2023/10/10 08:21:08;;;;;;;;;;;;;;;17.67;100.00;100177.69;4893420;29;19931;-82
2023/10/10 08:23:36;;;;;;;;;;;;;;;17.76;100.00;100169.47;4890667;29;19985;-83
2023/10/10 08:26:01;;;;;;;;;;;;;;;17.86;100.00;100170.06;4887699;29;19951;-83
2023/10/10 08:28:26;;;;;;;;;;;;;;;17.94;100.00;100167.38;4890244;29;20014;-82
2023/10/10 08:30:52;;;;;;;;;;;;;;;18.01;100.00;100154.16;4892198;29;19928;-82
2023/10/10 08:33:18;;;;;;;;;;;;;;;18.11;100.00;100165.44;4886436;29;19924;-80
2023/10/10 08:35:44;;;;;;;;;;;;;;;18.19;100.00;100165.41;4894293;29;19947;-80
2023/10/10 08:38:20;;;;;;;;;;;;;;;18.27;100.00;100170.66;4893157;29;19924;-83
2023/10/10 08:40:56;;;;;;;;;;;;;;;18.37;100.00;100165.94;4882936;29;20296;-82
2023/10/10 08:43:23;;;;;;;;;;;;;;;18.44;100.00;100168.72;4889609;29;19976;-82
2023/10/10 08:45:54;;;;;;;;;;;;;;;18.53;100.00;100164.16;4890703;29;19945;-82
2023/10/10 08:48:26;;;;;;;;;;;;;;;18.59;100.00;100158.13;4873884;29;20216;-82
2023/10/10 08:50:52;;;;;;;;;;;;;;;18.67;100.00;100163.41;4890153;29;19927;-79
2023/10/10 08:53:20;;;;;;;;;;;;;;;18.76;100.00;100164.97;4888857;29;19930;-79
2023/10/10 08:55:51;;;;;;;;;;;;;;;18.81;100.00;100163.44;4895800;29;19928;-81
2023/10/10 08:58:18;;;;;;;;;;;;;;;18.86;100.00;100170.06;4875233;29;20341;-80
2023/10/10 09:00:44;;;;;;;;;;;;;;;18.90;100.00;100169.53;4893789;29;20038;-81
2023/10/10 09:03:09;;;;;;;;;;;;;;;18.93;100.00;100171.84;4893724;29;20421;-79
2023/10/10 09:05:53;;;;;;;;;;;;;;;19.02;100.00;100169.94;4897570;29;19928;-80
2023/10/10 09:08:26;;;;;;;;;;;;;;;19.11;100.00;100169.66;4876598;29;19962;-81
2023/10/10 09:10:55;;;;;;;;;;;;;;;19.19;100.00;100166.91;4888124;29;19949;-79
2023/10/10 09:13:20;;;;;;;;;;;;;;;19.28;100.00;100164.13;4889820;29;19947;-80
2023/10/10 09:15:55;;;;;;;;;;;;;;;19.38;100.00;100175.41;4892702;29;20102;-80
2023/10/10 09:18:26;;;;;;;;;;;;;;;19.45;100.00;100168.28;4891812;29;20687;-81
2023/10/10 09:20:53;;;;;;;;;;;;;;;19.52;100.00;100161.22;4891374;29;20317;-81
2023/10/10 09:23:32;;;;;;;;;;;;;;;19.60;100.00;100158.44;4895381;29;19927;-83
2023/10/10 09:26:29;;;;;;;;;;;;;;;19.69;100.00;100165.34;4889952;29;19924;-80
2023/10/10 09:28:58;;;;;;;;;;;;;;;19.78;100.00;100156.22;4893456;29;19923;-80
2023/10/10 09:31:26;;;;;;;;;;;;;;;19.86;100.00;100157.94;4895492;29;20316;-81
2023/10/10 09:33:54;;;;;;;;;;;;;;;19.92;100.00;100152.66;4889167;29;19939;-80
2023/10/10 09:36:19;;;;;;;;;;;;;;;19.99;100.00;100142.84;4895011;29;20554;-79
2023/10/10 09:38:46;;;;;;;;;;;;;;;20.07;100.00;100149.94;4893376;29;20312;-78
2023/10/10 09:41:29;;;;;;;;;;;;;;;20.17;100.00;100150.47;4895936;29;19923;-77
2023/10/10 09:44:30;;;;;;;;;;;;;;;20.31;100.00;100151.44;4876274;29;19923;-76
2023/10/10 09:49:40;;;;;;;;;;;;;;;20.43;100.00;100144.56;4896472;29;19966;-79
2023/10/10 09:55:53;;;;;;;;;;;;;;;20.63;100.00;100134.84;4891711;29;20014;-77
2023/10/10 10:06:27;;;;;;;;;;;;;;;20.98;100.00;100133.03;4875206;29;19943;-81
2023/10/10 10:09:14;;;;;;;;;;;;;;;21.09;100.00;100134.34;4890295;29;20330;-83
2023/10/10 10:11:49;;;;;;;;;;;;;;;21.13;100.00;100130.25;4893051;29;19970;-83
2023/10/10 10:14:18;;;;;;;;;;;;;;;21.17;100.00;100131.56;4890831;29;19931;-79
2023/10/10 10:16:51;;;;;;;;;;;;;;;21.20;100.00;100126.63;4875631;29;19923;-83
2023/10/10 10:19:19;;;;;;;;;;;;;;;21.30;100.00;100126.28;4893311;29;20402;-79
2023/10/10 10:22:07;;;;;;;;;;;;;;;21.37;100.00;100121.78;4888289;29;19995;-77
2023/10/10 10:24:50;;;;;;;;;;;;;;;21.43;100.00;100120.97;4888511;29;19984;-78
2023/10/10 10:27:31;;;;;;;;;;;;;;;21.51;100.00;100128.00;4891960;29;19931;-77
2023/10/10 10:30:07;;;;;;;;;;;;;;;21.58;100.00;100124.34;4891620;29;19923;-78
2023/10/10 10:32:35;;;;;;;;;;;;;;;21.64;100.00;100117.34;4891084;29;20384;-76
2023/10/10 10:35:01;;;;;;;;;;;;;;;21.69;100.00;100114.03;4890386;29;20415;-78
2023/10/10 10:37:28;;;;;;;;;;;;;;;21.82;100.00;100119.47;4888825;29;19939;-83
2023/10/10 10:42:53;;;;;;;;;;;;;;;21.94;100.00;100116.00;4892683;29;19965;-79
2023/10/10 10:45:38;;;;;;;;;;;;;;;22.00;100.00;100111.69;4888118;29;19931;-82
2023/10/10 10:48:06;;;;;;;;;;;;;;;22.05;100.00;100111.91;4894551;29;19931;-83
2023/10/10 10:50:42;;;;;;;;;;;;;;;22.08;100.00;100108.00;4890252;29;19941;-83
2023/10/10 10:53:20;;;;;;;;;;;;;;;22.13;100.00;100106.34;4893158;29;19930;-84
2023/10/10 10:55:52;;;;;;;;;;;;;;;22.23;100.00;100104.09;4891776;29;19928;-83
2023/10/10 10:58:20;;;;;;;;;;;;;;;22.35;100.00;100099.75;4891693;29;19931;-83
2023/10/10 11:03:33;;;;;;;;;;;;;;;22.80;100.00;100086.53;4890278;29;20395;-83
2023/10/10 11:06:09;;;;;;;;;;;;;;;23.04;100.00;100083.19;4892707;29;19932;-84
2023/10/10 11:13:51;;;;;;;;;;;;;;;23.26;100.00;100071.13;4891575;29;19931;-83
2023/10/10 11:16:18;;;;;;;;;;;;;;;23.40;100.00;100058.41;4891185;29;20031;-81
2023/10/10 11:18:43;;;;;;;;;;;;;;;23.52;100.00;100064.81;4891019;29;19931;-83
2023/10/10 11:21:11;;;;;;;;;;;;;;;23.72;100.00;100058.50;4892403;29;19935;-83
2023/10/10 11:23:44;;;;;;;;;;;;;;;23.90;100.00;100055.91;4887466;29;20325;-80
2023/10/10 11:26:13;;;;;;;;;;;;;;;24.12;100.00;100051.00;4888780;29;19930;-81
2023/10/10 11:28:47;;;;;;;;;;;;;;;24.28;100.00;100043.22;4893514;29;19924;-81
2023/10/10 11:31:14;;;;;;;;;;;;;;;24.42;100.00;100033.16;4892108;29;19923;-80
2023/10/10 11:33:49;;;;;;;;;;;;;;;24.61;100.00;100032.16;4891455;29;19923;-82
2023/10/10 11:36:40;;;;;;;;;;;;;;;24.76;100.00;100024.50;4891870;29;19927;-80
2023/10/10 11:39:24;;;;;;;;;;;;;;;24.99;100.00;100023.06;4889424;29;19933;-80
2023/10/10 11:41:50;;;;;;;;;;;;;;;25.20;100.00;100022.63;4892333;29;19923;-81
2023/10/10 11:44:20;;;;;;;;;;;;;;;25.41;91.49;100016.72;4891484;29;20360;-81
2023/10/10 11:46:46;;;;;;;;;;;;;;;25.59;88.97;100008.59;4886862;29;19924;-82
2023/10/10 11:49:15;;;;;;;;;;;;;;;25.75;88.10;100006.28;4890139;29;19930;-81
2023/10/10 11:51:41;;;;;;;;;;;;;;;25.87;90.29;100009.84;4886927;29;20022;-80
2023/10/10 11:54:07;;;;;;;;;;;;;;;25.99;87.01;100008.00;4884232;29;19923;-81
2023/10/10 11:56:34;;;;;;;;;;;;;;;26.08;82.39;99995.81;4886905;29;20375;-81
2023/10/10 11:59:10;;;;;;;;;;;;;;;26.21;82.09;99995.59;4888367;29;19931;-81
2023/10/10 12:01:49;;;;;;;;;;;;;;;26.36;82.63;99993.28;4887522;29;20038;-81
2023/10/10 12:04:30;;;;;;;;;;;;;;;26.51;83.46;99990.09;4872172;29;19919;-81
2023/10/10 12:06:58;;;;;;;;;;;;;;;26.62;83.46;99978.47;4885991;29;19927;-81
2023/10/10 12:09:25;;;;;;;;;;;;;;;26.80;82.13;99982.91;4884978;29;19979;-81
2023/10/10 12:11:58;;;;;;;;;;;;;;;26.90;80.44;99983.16;4886047;29;19924;-81
2023/10/10 12:14:24;;;;;;;;;;;;;;;27.05;79.34;99978.03;4885107;29;20007;-81
2023/10/10 12:16:52;;;;;;;;;;;;;;;27.17;80.97;99973.41;4885693;29;19946;-81
2023/10/10 12:19:18;;;;;;;;;;;;;;;27.32;80.34;99977.50;4885951;29;20023;-81
2023/10/10 12:21:44;;;;;;;;;;;;;;;27.47;78.00;99966.94;4883417;29;19967;-81
2023/10/10 12:24:09;;;;;;;;;;;;;;;27.60;75.46;99958.53;4890157;29;19924;-81
2023/10/10 12:26:41;;;;;;;;;;;;;;;27.71;76.16;99957.66;4894243;29;20756;-81
2023/10/10 12:29:10;;;;;;;;;;;;;;;27.86;75.11;99960.63;4894176;29;19979;-81
2023/10/10 12:31:36;;;;;;;;;;;;;;;28.01;75.06;99947.31;4890653;29;19932;-81
2023/10/10 12:34:02;;;;;;;;;;;;;;;28.15;73.27;99952.44;4897159;29;20404;-81
2023/10/10 12:36:32;;;;;;;;;;;;;;;28.17;72.56;99944.84;4893275;29;20070;-81
2023/10/10 12:38:59;;;;;;;;;;;;;;;28.27;76.54;99939.59;4889350;29;19931;-81
2023/10/10 12:41:25;;;;;;;;;;;;;;;28.40;80.86;99933.78;4892041;29;19923;-81
2023/10/10 12:43:50;;;;;;;;;;;;;;;28.49;85.17;99932.31;4897906;29;19971;-81
2023/10/10 12:46:20;;;;;;;;;;;;;;;28.63;87.76;99928.16;4890264;29;19951;-81
2023/10/10 12:48:46;;;;;;;;;;;;;;;28.73;88.70;99927.47;4896943;29;19927;-82
2023/10/10 12:51:12;;;;;;;;;;;;;;;28.81;86.82;99925.16;4892454;29;19924;-82
2023/10/10 12:53:42;;;;;;;;;;;;;;;28.95;86.21;99919.34;4893740;29;19934;-81
2023/10/10 12:56:16;;;;;;;;;;;;;;;28.90;85.05;99917.41;4895766;29;19983;-81
2023/10/10 12:58:43;;;;;;;;;;;;;;;28.98;85.70;99918.84;4894383;29;19927;-81
2023/10/10 13:01:14;;;;;;;;;;;;;;;28.99;86.29;99912.31;4893339;29;19931;-81
2023/10/10 13:03:42;;;;;;;;;;;;;;;29.04;86.10;99912.41;4893132;29;20332;-80
2023/10/10 13:06:08;;;;;;;;;;;;;;;29.09;85.76;99905.13;4877684;29;19930;-81
2023/10/10 13:08:48;;;;;;;;;;;;;;;29.18;85.80;99902.75;4896923;29;20399;-80
2023/10/10 13:11:20;;;;;;;;;;;;;;;29.25;84.51;99904.19;4895014;29;19931;-81
2023/10/10 13:13:51;;;;;;;;;;;;;;;29.31;85.16;99907.78;4890879;29;19920;-81
2023/10/10 13:16:37;;;;;;;;;;;;;;;29.37;84.57;99901.34;4894287;29;19986;-81
2023/10/10 13:19:06;;;;;;;;;;;;;;;29.47;85.16;99898.72;4866315;29;19920;-82
2023/10/10 13:21:35;;;;;;;;;;;;;;;29.51;85.46;99897.13;4892517;29;19924;-78
2023/10/10 13:24:00;;;;;;;;;;;;;;;29.34;85.17;99896.41;4892668;29;20019;-78
2023/10/10 13:26:27;;;;;;;;;;;;;;;29.27;85.23;99891.19;4893180;29;20006;-78
2023/10/10 13:28:53;;;;;;;;;;;;;;;29.24;85.64;99888.16;4895015;29;20333;-78
2023/10/10 13:31:19;;;;;;;;;;;;;;;29.11;85.91;99885.81;4892438;29;19983;-78
2023/10/10 13:33:44;;;;;;;;;;;;;;;29.07;86.82;99882.00;4892461;29;20300;-77
2023/10/10 13:36:17;;;;;;;;;;;;;;;29.05;85.76;99870.53;4894406;29;20300;-78
2023/10/10 13:38:50;;;;;;;;;;;;;;;29.08;85.93;99876.31;4890821;29;19930;-78
2023/10/10 13:41:18;;;;;;;;;;;;;;;29.00;87.71;99868.59;4895838;29;19927;-77
2023/10/10 13:43:47;;;;;;;;;;;;;;;28.82;87.94;99864.31;4890316;29;20722;-77
2023/10/10 13:46:13;;;;;;;;;;;;;;;28.65;89.59;99860.84;4888826;29;19959;-78
2023/10/10 13:48:39;;;;;;;;;;;;;;;28.45;91.06;99863.31;4892620;29;19978;-77
2023/10/10 13:51:07;;;;;;;;;;;;;;;28.20;92.77;99857.53;4892687;29;20337;-78
2023/10/10 13:53:33;;;;;;;;;;;;;;;27.96;94.56;99868.56;4895840;29;19985;-77
2023/10/10 13:56:00;;;;;;;;;;;;;;;27.77;96.16;99864.47;4891373;29;19931;-77
2023/10/10 13:58:26;;;;;;;;;;;;;;;27.54;98.42;99870.06;4896683;29;20543;-77
2023/10/10 14:01:13;;;;;;;;;;;;;;;27.30;100.00;99864.75;4892874;29;19930;-76
2023/10/10 14:03:45;;;;;;;;;;;;;;;27.09;100.00;99862.75;4873333;29;20254;-76
2023/10/10 14:06:12;;;;;;;;;;;;;;;26.94;100.00;99856.19;4892716;29;20022;-78
2023/10/10 14:08:43;;;;;;;;;;;;;;;26.80;100.00;99858.38;4894419;29;19923;-78
2023/10/10 14:11:09;;;;;;;;;;;;;;;26.71;100.00;99854.38;4886438;29;19928;-77
2023/10/10 14:13:34;;;;;;;;;;;;;;;26.61;100.00;99852.31;4954450;23;20039;-78
2023/10/10 14:16:01;;;;;;;;;;;;;;;26.54;100.00;99856.19;4925778;23;19931;-79
2023/10/10 14:18:26;;;;;;;;;;;;;;;26.46;100.00;99855.50;4883367;29;20006;-80
2023/10/10 14:20:51;;;;;;;;;;;;;;;26.54;100.00;99848.06;4888481;29;20027;-78
2023/10/10 14:23:18;;;;;;;;;;;;;;;26.45;100.00;99851.13;4889775;29;20311;-79
2023/10/10 14:25:47;;;;;;;;;;;;;;;26.35;100.00;99859.06;4887914;29;19959;-78
2023/10/10 14:28:16;;;;;;;;;;;;;;;26.27;100.00;99853.19;4883000;29;20393;-78
2023/10/10 14:30:48;;;;;;;;;;;;;;;26.17;100.00;99853.75;4891270;29;19927;-78
2023/10/10 14:33:14;;;;;;;;;;;;;;;26.11;100.00;99854.69;4870419;29;19931;-79
2023/10/10 14:35:39;;;;;;;;;;;;;;;26.07;100.00;99853.53;4888476;29;20296;-79
2023/10/10 14:38:05;;;;;;;;;;;;;;;26.03;100.00;99857.78;4895805;29;19923;-80
2023/10/10 14:40:32;;;;;;;;;;;;;;;26.03;100.00;99855.91;4888490;29;19983;-81
2023/10/10 14:42:58;;;;;;;;;;;;;;;26.00;100.00;99850.94;4888881;29;19987;-79
2023/10/10 14:45:28;;;;;;;;;;;;;;;25.98;100.00;99852.22;4889716;29;20322;-80
2023/10/10 14:47:55;;;;;;;;;;;;;;;25.94;100.00;99853.75;4874490;29;19923;-79
2023/10/10 14:50:24;;;;;;;;;;;;;;;25.98;100.00;99849.53;4889208;29;19931;-79
2023/10/10 14:52:50;;;;;;;;;;;;;;;25.92;100.00;99850.50;4892568;29;20386;-79
2023/10/10 14:55:25;;;;;;;;;;;;;;;25.92;100.00;99850.50;4888758;29;19931;-78
2023/10/10 14:57:54;;;;;;;;;;;;;;;25.90;100.00;99858.00;4886836;23;19926;-84
2023/10/10 15:00:29;;;;;;;;;;;;;;;25.94;100.00;99853.75;4877171;29;19931;-85
2023/10/10 15:02:55;;;;;;;;;;;;;;;25.96;100.00;99854.38;4876937;29;20067;-85
2023/10/10 15:05:26;;;;;;;;;;;;;;;25.99;100.00;99856.59;4876486;29;20334;-85
2023/10/10 15:07:53;;;;;;;;;;;;;;;26.01;100.00;99862.59;4876913;29;19931;-85
2023/10/10 15:10:25;;;;;;;;;;;;;;;26.03;100.00;99863.19;4876756;29;19935;-85
2023/10/10 15:12:52;;;;;;;;;;;;;;;26.04;100.00;99859.41;4876552;29;19924;-85
2023/10/10 15:15:17;;;;;;;;;;;;;;;26.04;100.00;99871.03;4876126;29;20072;-85
2023/10/10 15:17:42;;;;;;;;;;;;;;;26.03;100.00;99863.19;4876345;29;20018;-85
2023/10/10 15:20:12;;;;;;;;;;;;;;;26.01;100.00;99865.28;4876615;29;19928;-85
2023/10/10 15:22:41;;;;;;;;;;;;;;;26.00;100.00;99869.06;4876132;29;19943;-85
2023/10/10 15:25:10;;;;;;;;;;;;;;;25.98;100.00;99873.84;4873330;29;19924;-85
2023/10/10 15:27:40;;;;;;;;;;;;;;;25.95;100.00;99871.63;4876267;29;20300;-84